Time;durP1;ratioP1;P1;durP2;ratioP2;P2;SDS_P1;SDS_P2;PMS_P1;PMS_P2;Temp;Humidity;BMP_temperature;BMP_pressure;BME280_temperature;BME280_humidity;BME280_pressure;Samples;Min_cycle;Max_cycle;Signal;HPM_P1;HPM_P2
2023/09/11 07:13:55;;;;;;;;;25.67;24.67;;;;;24.50;57.65;101043.94;5055782;27;46257;-72
2023/09/11 07:16:21;;;;;;;;;26.33;22.67;;;;;24.63;57.55;101046.16;5039596;28;45748;-73
2023/09/11 07:18:47;;;;;;;;;21.67;21.67;;;;;24.82;57.40;101042.28;5040602;28;45952;-73
2023/09/11 07:21:13;;;;;;;;;24.00;22.67;;;;;25.04;56.53;101033.63;5039848;28;45471;-71
2023/09/11 07:23:38;;;;;;;;;25.67;21.67;;;;;25.25;56.35;101031.22;5018245;28;46310;-71
2023/09/11 07:26:03;;;;;;;;;21.00;21.00;;;;;25.48;56.20;101027.75;5019740;28;45655;-71
2023/09/11 07:28:29;;;;;;;;;22.67;22.67;;;;;25.70;55.72;101028.03;5019893;28;46150;-71
2023/09/11 07:30:54;;;;;;;;;22.33;22.00;;;;;25.90;55.05;101030.31;5019409;28;46046;-71
2023/09/11 07:33:20;;;;;;;;;20.00;19.67;;;;;26.14;54.72;101037.50;5035060;28;46191;-71
2023/09/11 07:35:46;;;;;;;;;24.33;21.67;;;;;26.31;54.27;101034.72;5046972;28;45431;-72
2023/09/11 07:38:11;;;;;;;;;22.33;20.67;;;;;26.50;53.53;101032.53;5036860;28;45516;-72
2023/09/11 07:40:38;;;;;;;;;21.33;20.00;;;;;26.69;53.20;101040.22;5034494;28;45728;-71
2023/09/11 07:43:03;;;;;;;;;20.67;18.67;;;;;26.87;52.88;101035.47;5029099;28;46925;-71
2023/09/11 07:45:29;;;;;;;;;19.67;19.33;;;;;27.02;52.51;101039.09;5025609;28;45743;-71
2023/09/11 07:47:54;;;;;;;;;19.67;18.00;;;;;27.15;51.90;101043.94;5024419;28;46208;-71
2023/09/11 07:50:20;;;;;;;;;21.00;21.00;;;;;27.26;51.33;101049.94;5039478;28;45592;-72
2023/09/11 07:52:45;;;;;;;;;16.33;16.33;;;;;27.40;50.66;101042.81;5018904;28;46358;-71
2023/09/11 07:55:10;;;;;;;;;18.00;18.00;;;;;27.52;51.20;101057.66;5018606;28;54815;-71
2023/09/11 07:57:40;;;;;;;;;19.00;18.00;;;;;27.63;50.51;101061.84;5016722;28;45710;-71
2023/09/11 08:00:07;;;;;;;;;16.33;16.33;;;;;27.73;50.12;101062.38;5017816;28;45687;-71
2023/09/11 08:02:33;;;;;;;;;14.67;12.67;;;;;27.82;50.35;101054.94;5021510;28;46194;-71
2023/09/11 08:04:58;;;;;;;;;16.67;16.67;;;;;27.92;49.50;101059.25;5019125;28;46116;-71
2023/09/11 08:07:24;;;;;;;;;15.33;15.33;;;;;27.99;49.88;101061.03;5018461;28;46305;-71
2023/09/11 08:09:51;;;;;;;;;17.67;17.00;;;;;28.07;49.03;101051.88;5019019;28;45626;-71
2023/09/11 08:12:17;;;;;;;;;21.00;18.33;;;;;28.13;49.25;101047.53;5020219;28;45779;-71
2023/09/11 08:14:44;;;;;;;;;14.00;14.00;;;;;28.19;48.50;101046.75;5017986;28;45723;-71
2023/09/11 08:17:09;;;;;;;;;15.00;15.00;;;;;28.25;48.94;101051.47;5019557;28;46859;-71
2023/09/11 08:19:35;;;;;;;;;17.00;14.00;;;;;28.30;48.41;101056.38;5017849;28;46991;-71
2023/09/11 08:22:00;;;;;;;;;12.67;12.67;;;;;28.35;47.97;101059.34;5019704;28;47194;-71
2023/09/11 08:24:25;;;;;;;;;15.00;15.00;;;;;28.41;48.02;101066.75;5008556;28;45666;-71
2023/09/11 08:26:51;;;;;;;;;19.00;16.00;;;;;28.45;47.69;101074.56;5019716;28;45372;-71
2023/09/11 08:29:17;;;;;;;;;18.00;17.67;;;;;28.50;47.98;101077.56;5007908;28;46925;-72
2023/09/11 08:31:43;;;;;;;;;19.33;15.67;;;;;28.56;47.08;101084.16;5004870;28;47005;-72
2023/09/11 08:34:08;;;;;;;;;16.00;16.00;;;;;28.62;46.73;101080.63;5007720;28;47269;-72
2023/09/11 08:36:33;;;;;;;;;19.67;17.00;;;;;28.68;46.63;101093.50;5013288;28;46811;-72
2023/09/11 08:38:59;;;;;;;;;18.33;17.33;;;;;28.73;46.59;101090.19;5013417;28;45472;-73
2023/09/11 08:41:25;;;;;;;;;14.33;14.33;;;;;28.81;46.48;101090.03;5034820;28;46844;-73
2023/09/11 08:43:51;;;;;;;;;17.33;17.33;;;;;28.86;46.67;101087.59;5016108;28;45835;-72
2023/09/11 08:46:17;;;;;;;;;16.67;16.00;;;;;28.92;45.73;101081.34;5026847;28;45485;-73
2023/09/11 08:48:44;;;;;;;;;17.33;14.33;;;;;28.98;46.43;101076.13;5011838;28;45522;-72
2023/09/11 08:51:16;;;;;;;;;14.33;13.00;;;;;29.04;46.12;101075.34;5017104;28;46524;-70
2023/09/11 08:53:43;;;;;;;;;16.00;16.00;;;;;29.08;46.25;101079.38;5013124;28;45664;-71
2023/09/11 08:56:10;;;;;;;;;19.67;17.00;;;;;29.11;46.16;101081.72;5027788;28;45398;-72
2023/09/11 08:58:39;;;;;;;;;15.67;15.67;;;;;29.15;46.20;101076.69;5034884;28;45386;-71
2023/09/11 09:01:05;;;;;;;;;18.00;18.00;;;;;29.18;46.18;101068.94;5033768;28;45780;-71
2023/09/11 09:03:31;;;;;;;;;13.67;13.67;;;;;29.24;46.13;101078.22;5032392;28;45519;-71
2023/09/11 09:05:57;;;;;;;;;15.33;15.33;;;;;29.28;45.56;101068.59;5033555;28;45388;-71
2023/09/11 09:08:24;;;;;;;;;15.67;14.00;;;;;29.36;45.37;101072.19;5022119;28;45654;-71
2023/09/11 09:10:49;;;;;;;;;15.67;15.67;;;;;29.38;45.62;101060.00;5031345;28;46592;-71
2023/09/11 09:13:15;;;;;;;;;17.00;17.00;;;;;29.45;45.30;101071.84;5024454;28;45341;-71
2023/09/11 09:15:42;;;;;;;;;16.00;15.67;;;;;29.50;45.29;101070.41;5007299;28;46872;-71
2023/09/11 09:18:08;;;;;;;;;13.67;13.67;;;;;29.52;45.07;101071.06;5004516;28;46203;-72
2023/09/11 09:20:33;;;;;;;;;17.67;14.67;;;;;29.56;45.22;101077.84;5003965;28;45570;-73
2023/09/11 09:23:00;;;;;;;;;19.67;17.67;;;;;29.59;44.66;101075.53;5002733;28;46932;-72
2023/09/11 09:25:28;;;;;;;;;19.00;17.67;;;;;29.63;44.64;101092.38;5030446;28;45651;-72
2023/09/11 09:27:55;;;;;;;;;15.33;15.33;;;;;29.65;44.97;101123.13;5007967;28;46134;-72
2023/09/11 09:30:22;;;;;;;;;17.33;17.00;;;;;29.69;44.94;101154.50;5004255;28;46889;-72
2023/09/11 09:32:49;;;;;;;;;17.00;14.67;;;;;29.71;44.73;101149.66;5023388;28;45554;-72
2023/09/11 09:35:20;;;;;;;;;15.67;14.33;;;;;29.75;45.14;101139.16;5035295;28;45659;-72
2023/09/11 09:37:55;;;;;;;;;17.33;15.00;;;;;29.77;44.45;101133.47;5033993;28;45496;-72
2023/09/11 09:40:31;;;;;;;;;18.00;17.00;;;;;29.77;44.28;101136.22;5027014;28;45926;-72
2023/09/11 09:43:01;;;;;;;;;18.33;17.00;;;;;29.78;44.56;101141.50;5024508;28;46983;-72
2023/09/11 09:45:37;;;;;;;;;20.00;18.33;;;;;29.80;44.67;101133.91;5024135;28;46063;-70
2023/09/11 09:48:16;;;;;;;;;16.33;16.33;;;;;29.79;44.82;101139.59;5013046;28;45527;-69
2023/09/11 09:50:58;;;;;;;;;17.67;17.67;;;;;29.78;45.13;101144.22;5029469;28;46169;-69
2023/09/11 09:53:32;;;;;;;;;14.00;13.33;;;;;29.77;45.01;101136.22;5029264;28;45687;-70
2023/09/11 09:56:03;;;;;;;;;14.67;14.67;;;;;29.76;45.19;101138.13;5022352;28;45469;-68
2023/09/11 09:58:30;;;;;;;;;15.67;12.67;;;;;29.72;45.46;101129.44;5025706;28;45479;-69
2023/09/11 10:01:10;;;;;;;;;14.00;14.00;;;;;29.69;45.06;101139.97;5030557;28;46436;-69
2023/09/11 10:03:46;;;;;;;;;16.67;16.67;;;;;29.70;45.68;101147.97;5018045;28;45309;-70
2023/09/11 10:06:20;;;;;;;;;14.33;14.33;;;;;29.69;45.73;101149.03;5032235;28;45686;-69
2023/09/11 10:08:47;;;;;;;;;14.33;14.33;;;;;29.70;45.45;101141.63;5021499;28;45446;-70
2023/09/11 10:11:29;;;;;;;;;14.67;14.33;;;;;29.68;46.12;101133.63;5006528;28;46407;-69
2023/09/11 10:13:59;;;;;;;;;20.33;19.33;;;;;29.64;45.98;101124.16;5002818;28;45585;-70
2023/09/11 10:16:26;;;;;;;;;15.33;15.33;;;;;29.65;45.66;101139.53;5002771;28;45765;-70
2023/09/11 10:18:55;;;;;;;;;14.00;13.00;;;;;29.67;46.23;101128.38;5001229;28;46332;-69
2023/09/11 10:21:21;;;;;;;;;17.00;14.00;;;;;29.66;46.24;101110.25;5000511;28;45730;-70
2023/09/11 10:23:47;;;;;;;;;14.67;12.33;;;;;29.69;46.14;101120.81;5002434;28;47096;-68
2023/09/11 10:26:36;;;;;;;;;18.00;16.00;;;;;29.69;46.06;101116.19;5002299;28;46131;-69
2023/09/11 10:29:16;;;;;;;;;14.33;14.33;;;;;29.68;46.00;101100.81;5004233;28;46102;-68
2023/09/11 10:31:48;;;;;;;;;14.00;14.00;;;;;29.64;46.12;101105.03;5005913;28;47079;-68
2023/09/11 10:34:15;;;;;;;;;13.33;12.33;;;;;29.66;46.11;101113.84;4999922;28;45566;-70
2023/09/11 10:36:47;;;;;;;;;12.33;12.33;;;;;29.66;45.92;101105.66;5001804;28;46001;-70
2023/09/11 10:39:15;;;;;;;;;15.67;13.00;;;;;29.67;45.95;101109.25;5001140;28;45562;-70
2023/09/11 10:41:41;;;;;;;;;16.33;13.00;;;;;29.67;46.42;101112.81;5020006;28;46110;-70
2023/09/11 10:44:06;;;;;;;;;14.00;13.33;;;;;29.71;46.15;101118.75;5024955;28;45857;-69
2023/09/11 10:46:39;;;;;;;;;16.33;16.00;;;;;29.75;46.22;101122.72;5025437;28;45619;-67
2023/09/11 10:49:23;;;;;;;;;15.67;14.67;;;;;29.79;46.02;101123.19;5026874;28;45648;-68
2023/09/11 10:51:49;;;;;;;;;15.00;15.00;;;;;29.82;45.93;101112.69;5028006;28;45541;-68
2023/09/11 10:54:19;;;;;;;;;16.00;14.33;;;;;29.84;45.99;101107.03;5026911;28;45503;-68
2023/09/11 10:56:44;;;;;;;;;13.33;13.33;;;;;29.84;45.78;101107.84;5027738;28;45485;-68
2023/09/11 10:59:11;;;;;;;;;13.00;13.00;;;;;29.86;45.75;101107.66;5025843;28;45724;-68
2023/09/11 11:01:36;;;;;;;;;14.00;13.33;;;;;29.88;45.55;101093.78;5025805;28;46134;-69
2023/09/11 11:04:06;;;;;;;;;15.00;13.00;;;;;29.88;45.67;101078.22;5026024;28;45727;-69
2023/09/11 11:06:33;;;;;;;;;10.33;10.33;;;;;29.89;45.66;101070.81;5017609;28;45432;-69
2023/09/11 11:08:59;;;;;;;;;14.00;14.00;;;;;29.89;45.53;101079.88;5016833;28;45301;-69
2023/09/11 11:11:31;;;;;;;;;15.33;12.67;;;;;29.85;45.58;101071.25;5027467;28;46460;-69
2023/09/11 11:14:09;;;;;;;;;12.67;12.67;;;;;29.84;45.56;101068.72;5025560;28;45558;-68
2023/09/11 11:16:39;;;;;;;;;12.67;11.33;;;;;29.83;45.49;101061.53;5028880;28;45641;-68
2023/09/11 11:19:05;;;;;;;;;14.33;13.00;;;;;29.82;45.51;101063.44;5027146;28;45486;-68
2023/09/11 11:21:38;;;;;;;;;20.00;16.00;;;;;29.80;45.45;101068.25;5026361;28;46087;-68
2023/09/11 11:24:05;;;;;;;;;13.33;13.33;;;;;29.78;45.49;101070.38;5020142;28;45599;-68
2023/09/11 11:26:35;;;;;;;;;13.33;13.33;;;;;29.75;45.51;101073.50;5029309;28;45422;-68
2023/09/11 11:29:00;;;;;;;;;12.00;12.00;;;;;29.71;45.25;101064.84;5038749;28;45394;-69
2023/09/11 11:31:27;;;;;;;;;13.67;13.67;;;;;29.67;45.34;101068.22;5024227;28;45602;-69
2023/09/11 11:33:57;;;;;;;;;13.33;12.00;;;;;29.67;45.27;101069.03;5029800;28;45662;-69
2023/09/11 11:36:26;;;;;;;;;12.33;10.67;;;;;29.65;45.51;101062.09;5024953;28;45594;-69
2023/09/11 11:38:55;;;;;;;;;13.00;12.67;;;;;29.66;45.39;101066.50;5024970;28;45586;-70
2023/09/11 11:41:20;;;;;;;;;13.33;13.33;;;;;29.66;45.64;101070.09;5026419;28;45459;-68
2023/09/11 11:43:46;;;;;;;;;13.33;13.33;;;;;29.64;45.80;101066.72;5030421;28;45649;-69
2023/09/11 11:46:13;;;;;;;;;14.67;13.67;;;;;29.66;45.45;101078.31;5025430;28;45416;-70
2023/09/11 11:48:40;;;;;;;;;15.00;15.00;;;;;29.67;45.88;101073.69;5029384;28;45622;-68
2023/09/11 11:51:05;;;;;;;;;14.00;13.00;;;;;29.67;46.10;101079.16;5025007;28;46746;-70
2023/09/11 11:53:32;;;;;;;;;13.33;13.33;;;;;29.69;46.53;101075.16;5015380;28;45480;-69
2023/09/11 11:55:59;;;;;;;;;12.33;12.33;;;;;29.69;45.60;101080.66;5000812;28;46083;-69
2023/09/11 11:58:25;;;;;;;;;14.33;13.00;;;;;29.72;46.01;101068.44;5000715;28;46515;-70
2023/09/11 12:00:58;;;;;;;;;13.00;13.00;;;;;29.75;46.03;101057.09;5005286;28;46297;-70
2023/09/11 12:03:25;;;;;;;;;13.00;12.00;;;;;29.74;45.84;101060.88;5016188;28;45602;-70
2023/09/11 12:05:51;;;;;;;;;14.00;13.67;;;;;29.72;45.98;101052.88;5033971;28;45526;-69
2023/09/11 12:08:16;;;;;;;;;13.00;13.00;;;;;29.74;45.41;101049.09;5017646;28;45700;-69
2023/09/11 12:10:48;;;;;;;;;13.33;13.00;;;;;29.74;46.21;101044.47;5021270;28;45321;-70
2023/09/11 12:13:15;;;;;;;;;13.00;11.33;;;;;29.74;46.02;101038.16;5021119;28;45572;-71
2023/09/11 12:15:41;;;;;;;;;12.00;12.00;;;;;29.73;45.91;101031.84;5033549;28;45910;-71
2023/09/11 12:18:06;;;;;;;;;12.00;11.33;;;;;29.72;46.33;101041.94;5030161;28;45538;-71
2023/09/11 12:20:31;;;;;;;;;12.33;12.33;;;;;29.73;45.97;101045.50;5027275;28;45535;-70
2023/09/11 12:23:00;;;;;;;;;10.33;10.33;;;;;29.72;45.97;101041.94;5027905;28;45641;-71
2023/09/11 12:25:26;;;;;;;;;12.00;12.00;;;;;29.73;46.14;101042.78;5027927;28;45531;-71
2023/09/11 12:27:52;;;;;;;;;9.67;9.67;;;;;29.74;46.03;101039.00;5034066;28;45486;-69
2023/09/11 12:30:17;;;;;;;;;13.00;10.67;;;;;29.72;46.05;101036.44;5029007;28;46145;-69
2023/09/11 12:32:45;;;;;;;;;11.33;11.33;;;;;29.74;45.76;101038.16;5022765;28;45413;-69
2023/09/11 12:35:10;;;;;;;;;11.67;11.67;;;;;29.74;46.02;101029.97;5024668;28;45476;-69
2023/09/11 12:37:38;;;;;;;;;11.67;11.67;;;;;29.74;46.04;101025.31;5035614;28;45340;-70
2023/09/11 12:40:08;;;;;;;;;12.33;12.33;;;;;29.74;45.98;101016.28;5022061;28;45474;-70
2023/09/11 12:42:34;;;;;;;;;10.33;10.33;;;;;29.74;46.51;101014.38;5031916;28;45554;-70
2023/09/11 12:45:00;;;;;;;;;13.00;11.00;;;;;29.75;46.80;101007.03;5028110;28;45565;-71
2023/09/11 12:47:25;;;;;;;;;13.67;11.33;;;;;29.77;46.99;101000.28;5029869;28;45627;-70
2023/09/11 12:49:50;;;;;;;;;12.00;10.67;;;;;29.79;47.22;100992.72;5021907;28;45598;-70
2023/09/11 12:52:16;;;;;;;;;7.33;7.33;;;;;29.81;47.40;101007.06;5027440;28;45540;-70
2023/09/11 12:54:42;;;;;;;;;13.00;11.67;;;;;29.81;47.72;101009.78;5031585;28;45683;-70
2023/09/11 12:57:07;;;;;;;;;14.33;12.33;;;;;29.84;47.86;101012.09;5033611;28;45480;-70
2023/09/11 12:59:33;;;;;;;;;12.33;11.33;;;;;29.87;48.14;101015.47;5031586;28;47010;-71
2023/09/11 13:01:58;;;;;;;;;13.50;10.50;;;;;29.91;48.18;101005.81;5024024;28;47184;-72
2023/09/11 13:04:24;;;;;;;;;14.00;11.33;;;;;29.94;48.40;101002.66;5023679;28;45571;-72
2023/09/11 13:06:51;;;;;;;;;12.67;11.67;;;;;29.98;48.60;100996.56;5031405;28;45937;-71
2023/09/11 13:09:20;;;;;;;;;15.00;12.33;;;;;30.05;48.64;101002.06;5033393;28;46558;-70
2023/09/11 13:11:46;;;;;;;;;11.00;11.00;;;;;30.10;48.57;100998.69;5015446;28;46606;-71
2023/09/11 13:14:12;;;;;;;;;14.00;12.67;;;;;30.14;48.42;101000.00;5028350;28;45386;-72
2023/09/11 13:16:37;;;;;;;;;11.33;11.33;;;;;30.16;48.82;101006.09;5028606;28;46330;-72
2023/09/11 13:19:02;;;;;;;;;13.33;11.33;;;;;30.18;48.83;101011.38;5021741;28;45483;-71
2023/09/11 13:21:28;;;;;;;;;12.00;11.00;;;;;30.20;48.75;101009.28;5033948;28;45607;-71
2023/09/11 13:23:53;;;;;;;;;12.00;10.33;;;;;30.23;48.93;101008.84;5025982;28;51356;-72
2023/09/11 13:26:18;;;;;;;;;12.33;11.33;;;;;30.27;48.71;101003.81;5025989;28;60301;-71
2023/09/11 13:28:43;;;;;;;;;12.67;12.67;;;;;30.27;49.26;100990.13;5026671;28;45605;-70
2023/09/11 13:31:09;;;;;;;;;11.67;11.67;;;;;30.31;48.83;100988.66;5028531;28;58627;-70
2023/09/11 13:33:34;;;;;;;;;15.33;13.67;;;;;30.35;48.63;101003.59;5032065;28;51750;-71
2023/09/11 13:35:59;;;;;;;;;15.00;11.67;;;;;30.37;48.39;100996.03;5033088;28;45704;-70
2023/09/11 13:38:25;;;;;;;;;11.67;11.67;;;;;30.36;48.17;100991.59;5025864;28;47323;-70
2023/09/11 13:40:50;;;;;;;;;12.33;10.67;;;;;30.37;47.97;100985.09;5026318;28;48610;-70
2023/09/11 13:43:15;;;;;;;;;13.67;12.00;;;;;30.36;47.92;100976.03;5014682;28;45492;-71
2023/09/11 13:45:40;;;;;;;;;10.00;9.33;;;;;30.29;47.60;100961.50;5029563;28;60189;-72
2023/09/11 13:48:06;;;;;;;;;9.67;9.67;;;;;30.35;47.67;100977.09;5024291;28;53519;-71
2023/09/11 13:50:31;;;;;;;;;11.00;11.00;;;;;30.35;47.68;100974.34;5033499;28;45513;-71
2023/09/11 13:52:56;;;;;;;;;9.67;9.67;;;;;30.36;47.21;100972.44;5040155;28;51338;-71
2023/09/11 13:55:22;;;;;;;;;12.00;12.00;;;;;30.35;46.94;100968.88;5013925;28;45655;-71
2023/09/11 13:57:47;;;;;;;;;11.00;10.33;;;;;30.30;46.56;100960.44;5008091;28;70601;-70
2023/09/11 14:00:12;;;;;;;;;10.67;10.67;;;;;30.28;46.65;100956.22;5001284;28;50831;-70
2023/09/11 14:02:38;;;;;;;;;11.00;10.67;;;;;30.25;46.41;100960.22;5003216;28;47380;-70
2023/09/11 14:05:04;;;;;;;;;12.00;11.33;;;;;30.23;46.41;100962.31;5008611;28;45689;-70
2023/09/11 14:07:29;;;;;;;;;12.00;11.00;;;;;30.22;46.39;100949.69;5019897;28;45602;-71
2023/09/11 14:09:54;;;;;;;;;10.33;10.33;;;;;30.21;46.37;100954.31;5026168;28;45542;-70
2023/09/11 14:12:20;;;;;;;;;12.00;12.00;;;;;30.20;46.24;100958.09;5031220;28;45600;-71
2023/09/11 14:14:45;;;;;;;;;12.00;12.00;;;;;30.20;46.33;100958.09;5016153;28;45403;-72
2023/09/11 14:17:10;;;;;;;;;10.33;10.33;;;;;30.18;46.21;100943.81;5022093;28;54295;-70
2023/09/11 14:19:36;;;;;;;;;12.00;12.00;;;;;30.19;46.07;100941.88;5023011;28;45738;-70
2023/09/11 14:22:01;;;;;;;;;8.67;8.67;;;;;30.21;46.19;100940.63;5022900;28;45764;-71
2023/09/11 14:24:26;;;;;;;;;12.33;12.00;;;;;30.22;46.21;100944.22;5022544;28;45506;-70
2023/09/11 14:26:52;;;;;;;;;11.33;10.67;;;;;30.26;45.87;100931.81;5032650;28;48125;-71
2023/09/11 14:29:17;;;;;;;;;12.33;11.67;;;;;30.31;46.03;100942.09;5030824;28;45520;-70
2023/09/11 14:31:42;;;;;;;;;11.00;11.00;;;;;30.33;45.84;100932.63;5013849;28;45368;-70
2023/09/11 14:34:07;;;;;;;;;12.00;12.00;;;;;30.35;45.78;100929.69;5024529;28;45385;-70
2023/09/11 14:36:33;;;;;;;;;14.67;12.00;;;;;30.35;45.67;100924.22;5022984;28;48982;-70
2023/09/11 14:38:59;;;;;;;;;11.33;11.33;;;;;30.35;45.49;100925.06;5027613;28;46331;-70
2023/09/11 14:41:25;;;;;;;;;11.00;11.00;;;;;30.37;45.74;100933.91;5023789;28;45874;-72
2023/09/11 14:43:51;;;;;;;;;12.33;11.67;;;;;30.38;45.75;100937.50;5024727;28;45615;-73
2023/09/11 14:46:17;;;;;;;;;9.00;8.33;;;;;30.38;46.08;100935.56;5031994;28;46012;-72
2023/09/11 14:48:54;;;;;;;;;13.00;13.00;;;;;30.33;45.99;100920.84;5029190;28;47552;-70
2023/09/11 14:51:20;;;;;;;;;10.00;10.00;;;;;30.38;46.58;100932.84;5027894;28;45541;-70
2023/09/11 14:53:46;;;;;;;;;13.00;10.67;;;;;30.35;46.30;100919.59;5023073;28;45356;-72
2023/09/11 14:56:11;;;;;;;;;10.00;10.00;;;;;30.33;46.38;100921.69;5028097;28;47074;-71
2023/09/11 14:58:36;;;;;;;;;15.33;11.00;;;;;30.28;46.21;100921.47;5024604;28;45690;-71
2023/09/11 15:01:02;;;;;;;;;12.00;11.67;;;;;30.27;46.41;100917.06;5026160;28;45496;-72
2023/09/11 15:03:27;;;;;;;;;11.33;11.00;;;;;30.29;46.53;100914.97;5030299;28;45403;-73
2023/09/11 15:05:53;;;;;;;;;12.00;10.67;;;;;30.32;46.25;100917.25;5018599;28;45827;-72
2023/09/11 15:08:18;;;;;;;;;13.33;13.00;;;;;30.31;46.37;100910.09;5025044;28;45452;-72
2023/09/11 15:10:46;;;;;;;;;8.33;8.33;;;;;30.28;46.49;100896.00;5032166;28;45574;-71
2023/09/11 15:13:11;;;;;;;;;12.00;12.00;;;;;30.29;46.50;100906.75;5023036;28;45547;-71
2023/09/11 15:15:38;;;;;;;;;12.33;11.67;;;;;30.30;46.16;100907.56;5030189;28;45491;-71
2023/09/11 15:18:03;;;;;;;;;10.00;9.67;;;;;30.29;46.19;100901.28;5022494;28;45432;-71
2023/09/11 15:20:29;;;;;;;;;12.00;11.00;;;;;30.29;46.38;100903.16;5028769;28;45914;-71
2023/09/11 15:22:54;;;;;;;;;12.67;11.00;;;;;30.29;46.21;100901.28;5027503;28;50703;-72
2023/09/11 15:25:19;;;;;;;;;12.33;10.67;;;;;30.30;46.16;100896.63;5036707;28;54749;-70
2023/09/11 15:27:44;;;;;;;;;10.67;10.67;;;;;30.34;46.59;100906.97;5022625;28;45652;-71
2023/09/11 15:30:10;;;;;;;;;11.00;10.67;;;;;30.37;46.24;100902.97;5030114;28;45831;-71
2023/09/11 15:32:35;;;;;;;;;13.33;12.33;;;;;30.37;46.08;100898.31;5024188;28;45483;-71
2023/09/11 15:35:04;;;;;;;;;15.33;13.33;;;;;30.40;46.15;100894.31;5034398;28;46131;-71
2023/09/11 15:37:32;;;;;;;;;11.67;11.67;;;;;30.41;46.29;100897.88;5031756;28;45809;-73
2023/09/11 15:39:57;;;;;;;;;11.00;11.00;;;;;30.40;45.95;100901.69;5029935;28;45498;-72
2023/09/11 15:42:23;;;;;;;;;11.67;11.67;;;;;30.39;46.19;100903.56;5030663;28;45618;-71
2023/09/11 15:44:49;;;;;;;;;10.67;10.67;;;;;30.40;45.88;100896.22;5034872;28;56817;-71
2023/09/11 15:47:14;;;;;;;;;12.33;10.67;;;;;30.38;46.04;100891.78;5019017;28;45716;-71
2023/09/11 15:49:40;;;;;;;;;11.33;11.33;;;;;30.40;45.99;100890.75;5032086;28;45688;-73
2023/09/11 15:52:05;;;;;;;;;16.00;13.67;;;;;30.40;45.99;100891.56;5035044;28;52150;-74
2023/09/11 15:54:32;;;;;;;;;13.00;13.00;;;;;30.43;45.79;100885.66;5033179;28;45861;-74
2023/09/11 15:56:57;;;;;;;;;11.33;11.33;;;;;30.44;45.95;100878.31;5018388;28;45601;-75
2023/09/11 15:59:23;;;;;;;;;12.00;12.00;;;;;30.43;45.73;100884.81;5003416;28;48996;-74
2023/09/11 16:01:48;;;;;;;;;11.67;10.00;;;;;30.39;45.80;100884.41;5013296;28;46390;-73
2023/09/11 16:04:13;;;;;;;;;11.00;11.00;;;;;30.38;45.61;100885.47;5032822;28;50753;-74
2023/09/11 16:06:38;;;;;;;;;10.00;10.00;;;;;30.39;45.71;100892.63;5029201;28;45824;-75
2023/09/11 16:09:05;;;;;;;;;11.33;11.00;;;;;30.38;45.59;100894.50;5023578;28;45683;-72
2023/09/11 16:11:31;;;;;;;;;12.33;10.33;;;;;30.37;45.75;100892.81;5033251;28;45853;-74
2023/09/11 16:13:57;;;;;;;;;10.00;10.00;;;;;30.37;45.81;100892.00;5026982;28;45902;-73
2023/09/11 16:16:23;;;;;;;;;11.00;10.67;;;;;30.35;45.84;100889.47;5033905;28;45778;-76
2023/09/11 16:18:49;;;;;;;;;13.67;13.33;;;;;30.36;45.57;100887.56;5017329;28;45502;-71
2023/09/11 16:21:14;;;;;;;;;15.33;10.00;;;;;30.37;46.00;100892.81;5027759;28;56291;-72
2023/09/11 16:23:41;;;;;;;;;10.00;10.00;;;;;30.35;45.88;100894.09;5025051;28;54635;-74
2023/09/11 16:26:07;;;;;;;;;11.67;11.00;;;;;30.36;46.09;100901.25;5019022;28;45579;-73
2023/09/11 16:28:32;;;;;;;;;11.00;11.00;;;;;30.34;45.77;100887.78;5026351;28;45327;-75
2023/09/11 16:30:57;;;;;;;;;10.33;9.00;;;;;30.34;45.77;100895.16;5031724;28;45401;-72
2023/09/11 16:33:23;;;;;;;;;12.33;10.00;;;;;30.32;46.10;100883.59;5022974;28;59704;-73
2023/09/11 16:35:48;;;;;;;;;8.00;8.00;;;;;30.31;45.95;100879.13;5020067;28;47292;-74
2023/09/11 16:38:13;;;;;;;;;12.00;8.67;;;;;30.33;46.09;100880.63;5026874;28;45510;-73
2023/09/11 16:40:39;;;;;;;;;10.33;10.33;;;;;30.33;46.17;100883.34;5021842;28;45420;-75
2023/09/11 16:43:04;;;;;;;;;14.00;13.00;;;;;30.35;46.23;100874.94;5026199;28;45478;-74
2023/09/11 16:45:29;;;;;;;;;8.33;8.33;;;;;30.38;45.94;100882.72;5032590;28;45565;-72
2023/09/11 16:47:56;;;;;;;;;10.00;10.00;;;;;30.38;45.74;100885.47;5021299;28;45621;-73
2023/09/11 16:50:22;;;;;;;;;9.33;9.33;;;;;30.36;46.07;100893.03;5029224;28;45550;-72
2023/09/11 16:52:49;;;;;;;;;9.67;9.67;;;;;30.34;45.57;100887.78;5022599;28;45773;-72
2023/09/11 16:55:14;;;;;;;;;10.00;8.00;;;;;30.34;46.07;100886.94;5025342;28;45408;-75
2023/09/11 16:57:39;;;;;;;;;11.00;9.33;;;;;30.35;45.98;100896.84;5024078;28;45401;-74
2023/09/11 17:00:06;;;;;;;;;12.00;12.00;;;;;30.37;45.90;100894.75;5019669;28;45549;-71
2023/09/11 17:02:33;;;;;;;;;10.00;8.33;;;;;30.41;45.95;100886.94;5022601;28;46466;-74
2023/09/11 17:04:58;;;;;;;;;10.33;9.00;;;;;30.43;45.89;100890.28;5020414;28;45789;-73
2023/09/11 17:07:24;;;;;;;;;12.00;10.00;;;;;30.42;45.37;100892.22;5022290;28;45651;-72
2023/09/11 17:09:49;;;;;;;;;9.33;8.33;;;;;30.42;45.96;100888.63;5019278;28;45723;-73
2023/09/11 17:12:14;;;;;;;;;13.33;10.67;;;;;30.36;46.14;100885.69;5037369;28;47187;-72
2023/09/11 17:14:40;;;;;;;;;9.00;8.33;;;;;30.40;45.89;100893.47;5027701;28;45723;-72
2023/09/11 17:17:05;;;;;;;;;9.33;9.33;;;;;30.37;45.78;100892.81;5020485;28;45457;-72
2023/09/11 17:19:30;;;;;;;;;10.00;9.33;;;;;30.40;45.71;100907.16;5018473;28;45703;-74
2023/09/11 17:21:56;;;;;;;;;10.00;9.33;;;;;30.42;45.84;100911.38;5023079;28;46012;-77
2023/09/11 17:24:21;;;;;;;;;8.33;8.33;;;;;30.42;45.93;100908.63;5021796;28;45537;-75
2023/09/11 17:26:47;;;;;;;;;10.33;10.33;;;;;30.46;45.87;100901.69;5021113;28;45448;-76
2023/09/11 17:29:12;;;;;;;;;11.00;8.67;;;;;30.49;45.67;100905.91;5026128;28;45564;-73
2023/09/11 17:31:37;;;;;;;;;9.67;9.00;;;;;30.49;45.62;100906.72;5030914;28;57919;-75
2023/09/11 17:34:04;;;;;;;;;11.33;10.00;;;;;30.50;45.53;100910.31;5025750;28;45506;-75
2023/09/11 17:36:29;;;;;;;;;11.00;8.67;;;;;30.49;45.50;100909.47;5024146;28;45504;-75
2023/09/11 17:38:54;;;;;;;;;9.33;9.33;;;;;30.49;45.48;100919.59;5029159;28;45411;-75
2023/09/11 17:41:20;;;;;;;;;8.33;8.33;;;;;30.48;45.35;100923.34;5023274;28;53888;-75
2023/09/11 17:43:45;;;;;;;;;7.33;7.33;;;;;30.47;45.35;100917.06;5028796;28;45524;-75
2023/09/11 17:46:14;;;;;;;;;9.67;9.00;;;;;30.48;45.39;100926.09;5032413;28;45578;-74
2023/09/11 17:48:43;;;;;;;;;12.00;11.00;;;;;30.48;45.50;100923.34;5020931;28;45518;-75
2023/09/11 17:51:08;;;;;;;;;9.00;9.00;;;;;30.47;45.89;100918.94;5029332;28;46283;-74
2023/09/11 17:53:33;;;;;;;;;14.00;9.67;;;;;30.47;45.67;100921.69;5025546;28;45370;-74
2023/09/11 17:55:59;;;;;;;;;8.00;8.00;;;;;30.44;46.02;100928.41;5006371;28;45711;-74
2023/09/11 17:58:25;;;;;;;;;8.67;8.67;;;;;30.44;45.62;100933.91;5002282;28;45988;-73
2023/09/11 18:00:51;;;;;;;;;11.00;9.67;;;;;30.43;45.77;100923.16;5003323;28;46394;-74
2023/09/11 18:03:17;;;;;;;;;9.00;8.00;;;;;30.43;45.96;100923.16;5022776;28;48096;-74
2023/09/11 18:05:49;;;;;;;;;9.67;9.00;;;;;30.43;45.79;100926.75;5028015;28;45669;-74
2023/09/11 18:08:14;;;;;;;;;11.67;11.00;;;;;30.37;45.88;100911.16;5029201;28;45564;-74
2023/09/11 18:10:39;;;;;;;;;10.67;9.33;;;;;30.45;45.98;100932.00;5017966;28;59564;-73
2023/09/11 18:13:05;;;;;;;;;8.33;8.33;;;;;30.45;45.68;100927.38;5018051;28;48317;-74
2023/09/11 18:15:30;;;;;;;;;7.00;7.00;;;;;30.45;45.72;100927.38;5018282;28;45704;-74
2023/09/11 18:17:55;;;;;;;;;9.33;9.33;;;;;30.44;45.71;100919.38;5019640;28;52454;-74
2023/09/11 18:20:21;;;;;;;;;9.33;9.00;;;;;30.43;45.63;100918.53;5021660;28;61671;-74
2023/09/11 18:22:46;;;;;;;;;10.00;7.67;;;;;30.42;45.71;100924.22;5019701;28;45646;-74